sensor_id;sensor_type;location;lat;lon;timestamp;pressure;altitude;pressure_sealevel;temperature;humidity
32638;BME280;19045;52.268;10.506;2023-02-02T00:00:59;100403.03;;;4.35;97.23
32638;BME280;19045;52.268;10.506;2023-02-02T00:03:27;100394.03;;;4.36;97.39
32638;BME280;19045;52.268;10.506;2023-02-02T00:05:54;100406.13;;;4.32;97.12
32638;BME280;19045;52.268;10.506;2023-02-02T00:08:22;100414.09;;;4.32;96.98
32638;BME280;19045;52.268;10.506;2023-02-02T00:10:48;100406.81;;;4.27;97.13
32638;BME280;19045;52.268;10.506;2023-02-02T00:13:16;100401.16;;;4.17;97.24
32638;BME280;19045;52.268;10.506;2023-02-02T00:15:42;100409.94;;;4.18;97.49
32638;BME280;19045;52.268;10.506;2023-02-02T00:18:09;100414.81;;;4.21;97.68
32638;BME280;19045;52.268;10.506;2023-02-02T00:20:37;100405.22;;;4.20;97.18
32638;BME280;19045;52.268;10.506;2023-02-02T00:23:04;100405.22;;;4.20;96.72
32638;BME280;19045;52.268;10.506;2023-02-02T00:25:31;100407.88;;;4.20;96.99
32638;BME280;19045;52.268;10.506;2023-02-02T00:27:57;100407.44;;;4.23;97.03
32638;BME280;19045;52.268;10.506;2023-02-02T00:30:24;100409.22;;;4.29;96.38
32638;BME280;19045;52.268;10.506;2023-02-02T00:32:50;100405.94;;;4.33;96.06
32638;BME280;19045;52.268;10.506;2023-02-02T00:35:17;100398.97;;;4.32;96.46
32638;BME280;19045;52.268;10.506;2023-02-02T00:37:46;100398.91;;;4.39;95.87
32638;BME280;19045;52.268;10.506;2023-02-02T00:40:12;100405.88;;;4.40;95.37
32638;BME280;19045;52.268;10.506;2023-02-02T00:42:39;100407.53;;;4.34;95.42
32638;BME280;19045;52.268;10.506;2023-02-02T00:45:12;100407.72;;;4.39;95.06
32638;BME280;19045;52.268;10.506;2023-02-02T00:47:41;100404.25;;;4.39;95.10
32638;BME280;19045;52.268;10.506;2023-02-02T00:50:10;100396.69;;;4.36;94.96
32638;BME280;19045;52.268;10.506;2023-02-02T00:52:37;100393.44;;;4.34;94.75
32638;BME280;19045;52.268;10.506;2023-02-02T00:55:06;100413.97;;;4.27;94.56
32638;BME280;19045;52.268;10.506;2023-02-02T00:57:34;100397.63;;;4.23;94.38
32638;BME280;19045;52.268;10.506;2023-02-02T01:00:00;100403.81;;;4.17;94.79
32638;BME280;19045;52.268;10.506;2023-02-02T01:02:27;100415.66;;;4.14;94.44
32638;BME280;19045;52.268;10.506;2023-02-02T01:04:54;100398.97;;;4.07;94.72
32638;BME280;19045;52.268;10.506;2023-02-02T01:07:20;100407.34;;;4.04;94.58
32638;BME280;19045;52.268;10.506;2023-02-02T01:09:47;100419.84;;;4.04;94.99
32638;BME280;19045;52.268;10.506;2023-02-02T01:12:15;100418.59;;;4.06;94.45
32638;BME280;19045;52.268;10.506;2023-02-02T01:14:41;100415.72;;;4.08;93.77
32638;BME280;19045;52.268;10.506;2023-02-02T01:17:08;100421.03;;;4.08;93.69
32638;BME280;19045;52.268;10.506;2023-02-02T01:19:34;100427.19;;;4.02;94.13
32638;BME280;19045;52.268;10.506;2023-02-02T01:22:01;100426.00;;;3.98;94.62
32638;BME280;19045;52.268;10.506;2023-02-02T01:24:28;100431.94;;;4.00;95.20
32638;BME280;19045;52.268;10.506;2023-02-02T01:26:54;100446.63;;;4.02;95.35
32638;BME280;19045;52.268;10.506;2023-02-02T01:29:23;100445.38;;;4.05;95.04
32638;BME280;19045;52.268;10.506;2023-02-02T01:31:50;100447.19;;;4.11;94.93
32638;BME280;19045;52.268;10.506;2023-02-02T01:34:16;100429.34;;;4.18;94.77
32638;BME280;19045;52.268;10.506;2023-02-02T01:36:43;100438.13;;;4.18;94.90
32638;BME280;19045;52.268;10.506;2023-02-02T01:39:10;100440.59;;;4.20;94.81
32638;BME280;19045;52.268;10.506;2023-02-02T01:41:39;100447.56;;;4.14;95.13
32638;BME280;19045;52.268;10.506;2023-02-02T01:47:13;100445.34;;;4.11;95.72
32638;BME280;19045;52.268;10.506;2023-02-02T01:49:40;100473.41;;;4.07;95.59
32638;BME280;19045;52.268;10.506;2023-02-02T01:52:07;100458.50;;;4.00;95.68
32638;BME280;19045;52.268;10.506;2023-02-02T01:54:38;100468.50;;;3.98;95.96
32638;BME280;19045;52.268;10.506;2023-02-02T01:57:08;100458.97;;;3.90;96.25
32638;BME280;19045;52.268;10.506;2023-02-02T01:59:37;100453.44;;;3.92;96.27
32638;BME280;19045;52.268;10.506;2023-02-02T02:02:05;100455.09;;;3.86;96.58
32638;BME280;19045;52.268;10.506;2023-02-02T02:04:33;100465.72;;;3.86;96.17
32638;BME280;19045;52.268;10.506;2023-02-02T02:07:01;100476.38;;;3.80;96.50
32638;BME280;19045;52.268;10.506;2023-02-02T02:09:29;100468.00;;;3.83;96.23
32638;BME280;19045;52.268;10.506;2023-02-02T02:11:58;100466.22;;;3.70;96.88
32638;BME280;19045;52.268;10.506;2023-02-02T02:14:26;100490.06;;;3.83;95.98
32638;BME280;19045;52.268;10.506;2023-02-02T02:17:24;100482.91;;;3.84;95.94
32638;BME280;19045;52.268;10.506;2023-02-02T02:23:52;100496.97;;;3.97;94.88
32638;BME280;19045;52.268;10.506;2023-02-02T02:27:08;100502.25;;;4.04;94.91
32638;BME280;19045;52.268;10.506;2023-02-02T02:32:44;100497.69;;;4.11;94.69
32638;BME280;19045;52.268;10.506;2023-02-02T02:35:22;100492.59;;;4.09;94.92
32638;BME280;19045;52.268;10.506;2023-02-02T02:37:56;100497.53;;;3.99;94.80
32638;BME280;19045;52.268;10.506;2023-02-02T02:40:29;100500.00;;;4.01;95.32
32638;BME280;19045;52.268;10.506;2023-02-02T02:43:00;100511.44;;;4.01;95.33
32638;BME280;19045;52.268;10.506;2023-02-02T02:45:28;100496.97;;;3.97;95.36
32638;BME280;19045;52.268;10.506;2023-02-02T02:47:57;100510.47;;;3.89;95.41
32638;BME280;19045;52.268;10.506;2023-02-02T02:50:24;100500.44;;;3.91;95.75
32638;BME280;19045;52.268;10.506;2023-02-02T02:52:56;100511.50;;;3.88;96.05
32638;BME280;19045;52.268;10.506;2023-02-02T02:55:26;100514.78;;;3.90;96.15
32638;BME280;19045;52.268;10.506;2023-02-02T02:58:04;100520.47;;;3.94;95.82
32638;BME280;19045;52.268;10.506;2023-02-02T03:00:47;100523.94;;;4.01;95.76
32638;BME280;19045;52.268;10.506;2023-02-02T03:03:24;100529.00;;;4.02;96.02
32638;BME280;19045;52.268;10.506;2023-02-02T03:05:56;100521.06;;;3.96;96.21
32638;BME280;19045;52.268;10.506;2023-02-02T03:08:28;100523.34;;;3.92;96.34
32638;BME280;19045;52.268;10.506;2023-02-02T03:10:58;100515.59;;;3.91;96.88
32638;BME280;19045;52.268;10.506;2023-02-02T03:13:26;100527.66;;;3.87;97.11
32638;BME280;19045;52.268;10.506;2023-02-02T03:15:54;100533.16;;;3.85;97.10
32638;BME280;19045;52.268;10.506;2023-02-02T03:18:25;100530.94;;;3.82;97.38
32638;BME280;19045;52.268;10.506;2023-02-02T03:20:52;100537.91;;;3.83;97.42
32638;BME280;19045;52.268;10.506;2023-02-02T03:23:19;100531.56;;;3.84;97.37
32638;BME280;19045;52.268;10.506;2023-02-02T03:25:47;100538.91;;;3.82;97.64
32638;BME280;19045;52.268;10.506;2023-02-02T03:28:14;100533.59;;;3.82;97.46
32638;BME280;19045;52.268;10.506;2023-02-02T03:30:42;100540.97;;;3.80;97.71
32638;BME280;19045;52.268;10.506;2023-02-02T03:33:10;100546.06;;;3.82;97.60
32638;BME280;19045;52.268;10.506;2023-02-02T03:35:38;100531.78;;;3.76;97.92
32638;BME280;19045;52.268;10.506;2023-02-02T03:38:05;100552.88;;;3.71;98.00
32638;BME280;19045;52.268;10.506;2023-02-02T03:40:33;100553.47;;;3.67;98.30
32638;BME280;19045;52.268;10.506;2023-02-02T03:43:00;100551.66;;;3.67;98.16
32638;BME280;19045;52.268;10.506;2023-02-02T03:45:27;100557.97;;;3.66;98.05
32638;BME280;19045;52.268;10.506;2023-02-02T03:47:54;100575.13;;;3.77;98.06
32638;BME280;19045;52.268;10.506;2023-02-02T03:50:20;100572.00;;;3.86;97.69
32638;BME280;19045;52.268;10.506;2023-02-02T03:52:50;100578.97;;;3.87;97.14
32638;BME280;19045;52.268;10.506;2023-02-02T03:55:17;100578.16;;;3.87;97.01
32638;BME280;19045;52.268;10.506;2023-02-02T03:57:43;100588.34;;;3.90;96.82
32638;BME280;19045;52.268;10.506;2023-02-02T04:00:11;100589.78;;;3.86;97.32
32638;BME280;19045;52.268;10.506;2023-02-02T04:02:37;100593.88;;;3.88;97.36
32638;BME280;19045;52.268;10.506;2023-02-02T04:05:05;100584.28;;;3.87;97.14
32638;BME280;19045;52.268;10.506;2023-02-02T04:07:31;100596.78;;;3.80;98.10
32638;BME280;19045;52.268;10.506;2023-02-02T04:09:59;100603.91;;;3.80;97.65
32638;BME280;19045;52.268;10.506;2023-02-02T04:12:26;100606.75;;;3.85;97.52
32638;BME280;19045;52.268;10.506;2023-02-02T04:14:52;100604.94;;;3.79;97.96
32638;BME280;19045;52.268;10.506;2023-02-02T04:17:19;100607.44;;;3.67;98.29
32638;BME280;19045;52.268;10.506;2023-02-02T04:19:45;100606.78;;;3.65;98.48
32638;BME280;19045;52.268;10.506;2023-02-02T04:22:12;100617.03;;;3.61;99.26
32638;BME280;19045;52.268;10.506;2023-02-02T04:24:39;100619.28;;;3.58;99.35
32638;BME280;19045;52.268;10.506;2023-02-02T04:27:07;100614.38;;;3.61;99.17
32638;BME280;19045;52.268;10.506;2023-02-02T04:29:33;100614.38;;;3.61;99.41
32638;BME280;19045;52.268;10.506;2023-02-02T04:32:00;100625.41;;;3.58;99.63
32638;BME280;19045;52.268;10.506;2023-02-02T04:34:26;100619.66;;;3.68;99.30
32638;BME280;19045;52.268;10.506;2023-02-02T04:36:53;100623.94;;;3.76;99.34
32638;BME280;19045;52.268;10.506;2023-02-02T04:39:20;100629.28;;;3.69;99.04
32638;BME280;19045;52.268;10.506;2023-02-02T04:41:46;100626.00;;;3.80;99.03
32638;BME280;19045;52.268;10.506;2023-02-02T04:44:15;100627.03;;;3.73;99.50
32638;BME280;19045;52.268;10.506;2023-02-02T04:46:42;100633.75;;;3.82;99.07
32638;BME280;19045;52.268;10.506;2023-02-02T04:49:09;100626.81;;;3.74;99.88
32638;BME280;19045;52.268;10.506;2023-02-02T04:51:37;100622.53;;;3.67;100.00
32638;BME280;19045;52.268;10.506;2023-02-02T04:54:04;100638.06;;;3.76;100.00
32638;BME280;19045;52.268;10.506;2023-02-02T04:56:31;100629.28;;;3.69;100.00
32638;BME280;19045;52.268;10.506;2023-02-02T04:58:57;100641.53;;;3.70;100.00
32638;BME280;19045;52.268;10.506;2023-02-02T05:01:25;100633.75;;;3.75;100.00
32638;BME280;19045;52.268;10.506;2023-02-02T05:03:53;100644.38;;;3.75;100.00
32638;BME280;19045;52.268;10.506;2023-02-02T05:06:20;100639.88;;;3.76;100.00
32638;BME280;19045;52.268;10.506;2023-02-02T05:08:47;100644.19;;;3.70;100.00
32638;BME280;19045;52.268;10.506;2023-02-02T05:11:15;100654.59;;;3.78;100.00
32638;BME280;19045;52.268;10.506;2023-02-02T05:13:44;100658.28;;;3.77;100.00
32638;BME280;19045;52.268;10.506;2023-02-02T05:16:11;100648.09;;;3.74;100.00
32638;BME280;19045;52.268;10.506;2023-02-02T05:18:39;100655.81;;;3.76;100.00
32638;BME280;19045;52.268;10.506;2023-02-02T05:21:06;100660.75;;;3.65;100.00
32638;BME280;19045;52.268;10.506;2023-02-02T05:23:33;100655.25;;;3.60;100.00
32638;BME280;19045;52.268;10.506;2023-02-02T05:25:59;100660.75;;;3.65;100.00
32638;BME280;19045;52.268;10.506;2023-02-02T05:28:26;100663.41;;;3.59;100.00
32638;BME280;19045;52.268;10.506;2023-02-02T05:30:53;100670.78;;;3.50;100.00
32638;BME280;19045;52.268;10.506;2023-02-02T05:33:20;100672.63;;;3.50;100.00
32638;BME280;19045;52.268;10.506;2023-02-02T05:35:48;100680.34;;;3.45;100.00
32638;BME280;19045;52.268;10.506;2023-02-02T05:38:15;100672.59;;;3.56;100.00
32638;BME280;19045;52.268;10.506;2023-02-02T05:40:42;100684.66;;;3.59;100.00
32638;BME280;19045;52.268;10.506;2023-02-02T05:43:09;100678.91;;;3.69;100.00
32638;BME280;19045;52.268;10.506;2023-02-02T05:45:35;100680.16;;;3.59;100.00
32638;BME280;19045;52.268;10.506;2023-02-02T05:48:02;100693.66;;;3.64;100.00
32638;BME280;19045;52.268;10.506;2023-02-02T05:50:28;100688.13;;;3.59;100.00
32638;BME280;19045;52.268;10.506;2023-02-02T05:52:57;100691.19;;;3.63;100.00
32638;BME280;19045;52.268;10.506;2023-02-02T05:55:24;100687.72;;;3.62;100.00
32638;BME280;19045;52.268;10.506;2023-02-02T05:57:50;100698.56;;;3.61;100.00
32638;BME280;19045;52.268;10.506;2023-02-02T06:00:18;100695.28;;;3.65;100.00
32638;BME280;19045;52.268;10.506;2023-02-02T06:02:44;100704.28;;;3.78;100.00
32638;BME280;19045;52.268;10.506;2023-02-02T06:05:11;100693.84;;;3.83;100.00
32638;BME280;19045;52.268;10.506;2023-02-02T06:07:38;100703.22;;;3.85;100.00
32638;BME280;19045;52.268;10.506;2023-02-02T06:10:06;100699.16;;;3.83;100.00
32638;BME280;19045;52.268;10.506;2023-02-02T06:12:33;100702.00;;;3.75;100.00
32638;BME280;19045;52.268;10.506;2023-02-02T06:15:00;100695.88;;;3.81;100.00
32638;BME280;19045;52.268;10.506;2023-02-02T06:17:28;100705.47;;;3.82;100.00
32638;BME280;19045;52.268;10.506;2023-02-02T06:19:54;100707.53;;;3.67;100.00
32638;BME280;19045;52.268;10.506;2023-02-02T06:22:21;100710.59;;;3.63;100.00
32638;BME280;19045;52.268;10.506;2023-02-02T06:24:47;100716.94;;;3.49;100.00
32638;BME280;19045;52.268;10.506;2023-02-02T06:27:15;100721.66;;;3.47;100.00
32638;BME280;19045;52.268;10.506;2023-02-02T06:29:42;100721.84;;;3.59;100.00
32638;BME280;19045;52.268;10.506;2023-02-02T06:32:08;100727.78;;;3.41;100.00
32638;BME280;19045;52.268;10.506;2023-02-02T06:34:35;100730.22;;;3.43;100.00
32638;BME280;19045;52.268;10.506;2023-02-02T06:37:02;100726.13;;;3.47;100.00
32638;BME280;19045;52.268;10.506;2023-02-02T06:39:28;100740.44;;;3.52;100.00
32638;BME280;19045;52.268;10.506;2023-02-02T06:41:55;100741.84;;;3.55;100.00
32638;BME280;19045;52.268;10.506;2023-02-02T06:44:23;100742.47;;;3.57;100.00
32638;BME280;19045;52.268;10.506;2023-02-02T06:46:49;100743.72;;;3.54;100.00
32638;BME280;19045;52.268;10.506;2023-02-02T06:49:16;100744.50;;;3.48;100.00
32638;BME280;19045;52.268;10.506;2023-02-02T06:51:43;100748.78;;;3.43;100.00
32638;BME280;19045;52.268;10.506;2023-02-02T06:54:09;100742.66;;;3.42;100.00
32638;BME280;19045;52.268;10.506;2023-02-02T06:56:36;100748.19;;;3.47;100.00
32638;BME280;19045;52.268;10.506;2023-02-02T06:59:02;100744.09;;;3.51;100.00
32638;BME280;19045;52.268;10.506;2023-02-02T07:01:31;100747.16;;;3.55;100.00
32638;BME280;19045;52.268;10.506;2023-02-02T07:04:00;100746.16;;;3.49;100.00
32638;BME280;19045;52.268;10.506;2023-02-02T07:06:27;100747.97;;;3.55;100.00
32638;BME280;19045;52.268;10.506;2023-02-02T07:08:55;100755.53;;;3.52;100.00
32638;BME280;19045;52.268;10.506;2023-02-02T07:11:22;100763.09;;;3.48;100.00
32638;BME280;19045;52.268;10.506;2023-02-02T07:13:48;100763.50;;;3.45;100.00
32638;BME280;19045;52.268;10.506;2023-02-02T07:16:16;100774.34;;;3.50;100.00
32638;BME280;19045;52.268;10.506;2023-02-02T07:18:46;100776.59;;;3.53;100.00
32638;BME280;19045;52.268;10.506;2023-02-02T07:21:16;100781.50;;;3.50;100.00
32638;BME280;19045;52.268;10.506;2023-02-02T07:23:43;100783.16;;;3.64;100.00
32638;BME280;19045;52.268;10.506;2023-02-02T07:26:11;100790.09;;;3.65;100.00
32638;BME280;19045;52.268;10.506;2023-02-02T07:28:38;100793.38;;;3.67;100.00
32638;BME280;19045;52.268;10.506;2023-02-02T07:31:12;100801.75;;;3.77;100.00
32638;BME280;19045;52.268;10.506;2023-02-02T07:33:40;100801.34;;;3.87;100.00
32638;BME280;19045;52.268;10.506;2023-02-02T07:36:08;100810.56;;;3.91;100.00
32638;BME280;19045;52.268;10.506;2023-02-02T07:38:35;100809.75;;;3.97;100.00
32638;BME280;19045;52.268;10.506;2023-02-02T07:41:02;100813.22;;;3.97;100.00
32638;BME280;19045;52.268;10.506;2023-02-02T07:43:29;100807.91;;;4.04;100.00
32638;BME280;19045;52.268;10.506;2023-02-02T07:45:58;100810.13;;;4.13;100.00
32638;BME280;19045;52.268;10.506;2023-02-02T07:48:26;100815.66;;;4.18;100.00
32638;BME280;19045;52.268;10.506;2023-02-02T07:50:52;100820.13;;;4.25;100.00
32638;BME280;19045;52.268;10.506;2023-02-02T07:53:21;100818.28;;;4.32;100.00
32638;BME280;19045;52.268;10.506;2023-02-02T07:55:47;100827.50;;;4.29;100.00
32638;BME280;19045;52.268;10.506;2023-02-02T07:58:14;100824.00;;;4.42;100.00
32638;BME280;19045;52.268;10.506;2023-02-02T08:00:41;100826.66;;;4.48;100.00
32638;BME280;19045;52.268;10.506;2023-02-02T08:03:09;100827.47;;;4.49;100.00
32638;BME280;19045;52.268;10.506;2023-02-02T08:05:36;100838.31;;;4.54;100.00
32638;BME280;19045;52.268;10.506;2023-02-02T08:08:03;100831.38;;;4.53;100.00
32638;BME280;19045;52.268;10.506;2023-02-02T08:10:31;100838.50;;;4.59;100.00
32638;BME280;19045;52.268;10.506;2023-02-02T08:12:57;100846.28;;;4.74;100.00
32638;BME280;19045;52.268;10.506;2023-02-02T08:15:24;100846.47;;;4.72;100.00
32638;BME280;19045;52.268;10.506;2023-02-02T08:17:51;100863.88;;;4.68;100.00
32638;BME280;19045;52.268;10.506;2023-02-02T08:20:17;100858.53;;;4.68;100.00
32638;BME280;19045;52.268;10.506;2023-02-02T08:22:44;100857.31;;;4.64;100.00
32638;BME280;19045;52.268;10.506;2023-02-02T08:25:11;100865.09;;;4.72;100.00
32638;BME280;19045;52.268;10.506;2023-02-02T08:27:39;100866.06;;;4.84;100.00
32638;BME280;19045;52.268;10.506;2023-02-02T08:30:06;100868.13;;;4.82;100.00
32638;BME280;19045;52.268;10.506;2023-02-02T08:32:33;100870.19;;;4.80;100.00
32638;BME280;19045;52.268;10.506;2023-02-02T08:35:00;100880.44;;;4.83;100.00
32638;BME280;19045;52.268;10.506;2023-02-02T08:37:27;100876.50;;;4.99;100.00
32638;BME280;19045;52.268;10.506;2023-02-02T08:39:53;100876.47;;;5.05;100.00
32638;BME280;19045;52.268;10.506;2023-02-02T08:42:20;100884.03;;;5.08;100.00
32638;BME280;19045;52.268;10.506;2023-02-02T08:44:48;100892.03;;;5.08;100.00
32638;BME280;19045;52.268;10.506;2023-02-02T08:47:15;100888.34;;;5.09;100.00
32638;BME280;19045;52.268;10.506;2023-02-02T08:49:41;100889.97;;;5.04;100.00
32638;BME280;19045;52.268;10.506;2023-02-02T08:52:09;100893.28;;;4.99;100.00
32638;BME280;19045;52.268;10.506;2023-02-02T08:54:35;100888.53;;;5.08;100.00
32638;BME280;19045;52.268;10.506;2023-02-02T08:57:02;100898.38;;;5.07;100.00
32638;BME280;19045;52.268;10.506;2023-02-02T08:59:29;100905.13;;;5.10;100.00
32638;BME280;19045;52.268;10.506;2023-02-02T09:01:56;100905.91;;;5.24;100.00
32638;BME280;19045;52.268;10.506;2023-02-02T09:04:23;100904.28;;;5.22;100.00
32638;BME280;19045;52.268;10.506;2023-02-02T09:06:50;100896.00;;;5.37;100.00
32638;BME280;19045;52.268;10.506;2023-02-02T09:09:16;100915.00;;;5.54;100.00
32638;BME280;19045;52.268;10.506;2023-02-02T09:11:43;100918.03;;;5.64;99.55
32638;BME280;19045;52.268;10.506;2023-02-02T09:14:10;100916.81;;;5.66;99.14
32638;BME280;19045;52.268;10.506;2023-02-02T09:16:38;100921.28;;;5.72;99.68
32638;BME280;19045;52.268;10.506;2023-02-02T09:19:06;100915.91;;;5.79;98.23
32638;BME280;19045;52.268;10.506;2023-02-02T09:21:33;100925.13;;;5.83;98.54
32638;BME280;19045;52.268;10.506;2023-02-02T09:24:05;100927.31;;;5.99;98.81
32638;BME280;19045;52.268;10.506;2023-02-02T09:26:32;100927.50;;;6.29;96.51
32638;BME280;19045;52.268;10.506;2023-02-02T09:29:06;100937.47;;;6.40;95.47
32638;BME280;19045;52.268;10.506;2023-02-02T09:31:36;100943.69;;;6.59;95.08
32638;BME280;19045;52.268;10.506;2023-02-02T09:34:06;100942.66;;;6.85;93.33
32638;BME280;19045;52.268;10.506;2023-02-02T09:36:34;100951.41;;;6.67;92.31
32638;BME280;19045;52.268;10.506;2023-02-02T09:39:00;100942.00;;;6.64;91.97
32638;BME280;19045;52.268;10.506;2023-02-02T09:44:22;100952.88;;;6.63;92.25
32638;BME280;19045;52.268;10.506;2023-02-02T09:46:59;100956.88;;;6.54;91.72
32638;BME280;19045;52.268;10.506;2023-02-02T09:49:38;100956.09;;;6.47;93.00
32638;BME280;19045;52.268;10.506;2023-02-02T09:52:13;100961.81;;;6.50;93.26
32638;BME280;19045;52.268;10.506;2023-02-02T09:54:43;100967.44;;;6.67;92.85
32638;BME280;19045;52.268;10.506;2023-02-02T09:57:15;100966.28;;;6.81;91.10
32638;BME280;19045;52.268;10.506;2023-02-02T09:59:44;100968.03;;;6.94;90.70
32638;BME280;19045;52.268;10.506;2023-02-02T10:02:15;100972.91;;;6.97;90.16
32638;BME280;19045;52.268;10.506;2023-02-02T10:04:47;100977.75;;;6.88;90.17
32638;BME280;19045;52.268;10.506;2023-02-02T10:07:19;100970.00;;;6.80;90.11
32638;BME280;19045;52.268;10.506;2023-02-02T10:09:55;100979.41;;;7.07;89.61
32638;BME280;19045;52.268;10.506;2023-02-02T10:12:33;100970.66;;;7.18;88.54
32638;BME280;19045;52.268;10.506;2023-02-02T10:15:11;100989.13;;;7.20;88.21
32638;BME280;19045;52.268;10.506;2023-02-02T10:17:47;100985.88;;;7.18;88.08
32638;BME280;19045;52.268;10.506;2023-02-02T10:20:24;100984.44;;;6.97;89.82
32638;BME280;19045;52.268;10.506;2023-02-02T10:22:58;100997.13;;;7.02;89.47
32638;BME280;19045;52.268;10.506;2023-02-02T10:25:30;100990.53;;;7.04;89.10
32638;BME280;19045;52.268;10.506;2023-02-02T10:28:04;100992.72;;;7.50;89.19
32638;BME280;19045;52.268;10.506;2023-02-02T10:30:38;101001.56;;;8.17;84.51
32638;BME280;19045;52.268;10.506;2023-02-02T10:33:14;100994.22;;;8.42;82.55
32638;BME280;19045;52.268;10.506;2023-02-02T10:35:52;100992.44;;;8.77;79.41
32638;BME280;19045;52.268;10.506;2023-02-02T10:38:28;101003.75;;;8.38;79.88
32638;BME280;19045;52.268;10.506;2023-02-02T10:41:05;101013.59;;;7.78;83.02
32638;BME280;19045;52.268;10.506;2023-02-02T10:43:58;101023.22;;;7.24;86.18
32638;BME280;19045;52.268;10.506;2023-02-02T10:46:29;101022.75;;;6.85;90.07
32638;BME280;19045;52.268;10.506;2023-02-02T10:49:10;101026.88;;;6.56;94.10
32638;BME280;19045;52.268;10.506;2023-02-02T10:51:45;101024.19;;;6.24;96.48
32638;BME280;19045;52.268;10.506;2023-02-02T10:54:24;101021.50;;;5.87;95.68
32638;BME280;19045;52.268;10.506;2023-02-02T10:56:56;101023.81;;;5.70;97.52
32638;BME280;19045;52.268;10.506;2023-02-02T10:59:27;101023.59;;;5.71;98.18
32638;BME280;19045;52.268;10.506;2023-02-02T11:01:55;101019.88;;;5.79;98.78
32638;BME280;19045;52.268;10.506;2023-02-02T11:04:21;101024.81;;;5.76;99.08
32638;BME280;19045;52.268;10.506;2023-02-02T11:07:07;101024.56;;;5.77;100.00
32638;BME280;19045;52.268;10.506;2023-02-02T11:09:38;101017.81;;;5.88;100.00
32638;BME280;19045;52.268;10.506;2023-02-02T11:12:12;101023.53;;;5.91;100.00
32638;BME280;19045;52.268;10.506;2023-02-02T11:14:46;101030.22;;;6.07;100.00
32638;BME280;19045;52.268;10.506;2023-02-02T11:17:18;101025.50;;;6.96;100.00
32638;BME280;19045;52.268;10.506;2023-02-02T11:19:46;101039.19;;;7.06;94.95
32638;BME280;19045;52.268;10.506;2023-02-02T11:22:29;101050.38;;;6.97;94.71
32638;BME280;19045;52.268;10.506;2023-02-02T11:24:59;101043.09;;;6.86;94.14
32638;BME280;19045;52.268;10.506;2023-02-02T11:27:28;101038.00;;;6.78;95.04
32638;BME280;19045;52.268;10.506;2023-02-02T11:29:58;101036.31;;;7.08;95.17
32638;BME280;19045;52.268;10.506;2023-02-02T11:32:28;101037.66;;;7.78;90.86
32638;BME280;19045;52.268;10.506;2023-02-02T11:35:16;101046.47;;;8.74;85.83
32638;BME280;19045;52.268;10.506;2023-02-02T11:38:08;101049.25;;;8.68;82.41
32638;BME280;19045;52.268;10.506;2023-02-02T11:40:36;101052.28;;;8.71;84.72
32638;BME280;19045;52.268;10.506;2023-02-02T11:43:06;101045.03;;;8.72;81.85
32638;BME280;19045;52.268;10.506;2023-02-02T11:45:41;101052.25;;;8.30;83.62
32638;BME280;19045;52.268;10.506;2023-02-02T11:48:14;101054.41;;;8.03;84.69
32638;BME280;19045;52.268;10.506;2023-02-02T11:50:43;101051.53;;;8.05;85.14
32638;BME280;19045;52.268;10.506;2023-02-02T11:53:21;101047.63;;;8.19;86.29
32638;BME280;19045;52.268;10.506;2023-02-02T11:55:48;101051.66;;;8.58;84.87
32638;BME280;19045;52.268;10.506;2023-02-02T11:58:20;101038.19;;;8.76;83.35
32638;BME280;19045;52.268;10.506;2023-02-02T12:00:51;101044.06;;;9.43;79.87
32638;BME280;19045;52.268;10.506;2023-02-02T12:03:28;101043.94;;;9.49;77.56
32638;BME280;19045;52.268;10.506;2023-02-02T12:05:55;101036.94;;;9.48;78.27
32638;BME280;19045;52.268;10.506;2023-02-02T12:08:23;101031.94;;;10.03;76.55
32638;BME280;19045;52.268;10.506;2023-02-02T12:10:58;101042.44;;;11.45;67.85
32638;BME280;19045;52.268;10.506;2023-02-02T12:13:38;101040.31;;;11.63;66.22
32638;BME280;19045;52.268;10.506;2023-02-02T12:16:20;101039.63;;;12.43;68.38
32638;BME280;19045;52.268;10.506;2023-02-02T12:19:01;101034.25;;;10.84;67.30
32638;BME280;19045;52.268;10.506;2023-02-02T12:21:37;101041.41;;;10.17;69.79
32638;BME280;19045;52.268;10.506;2023-02-02T12:24:22;101027.16;;;9.19;74.22
32638;BME280;19045;52.268;10.506;2023-02-02T12:26:59;101057.94;;;7.67;80.96
32638;BME280;19045;52.268;10.506;2023-02-02T12:29:46;101057.50;;;7.52;83.09
32638;BME280;19045;52.268;10.506;2023-02-02T12:32:27;101056.53;;;7.65;84.66
32638;BME280;19045;52.268;10.506;2023-02-02T12:35:12;101053.81;;;8.38;81.50
32638;BME280;19045;52.268;10.506;2023-02-02T12:37:53;101054.59;;;12.07;68.10
32638;BME280;19045;52.268;10.506;2023-02-02T12:40:38;101045.47;;;13.62;57.58
32638;BME280;19045;52.268;10.506;2023-02-02T12:43:18;101049.63;;;12.42;59.27
32638;BME280;19045;52.268;10.506;2023-02-02T12:46:21;101054.19;;;13.32;57.44
32638;BME280;19045;52.268;10.506;2023-02-02T12:49:05;101038.38;;;15.95;48.86
32638;BME280;19045;52.268;10.506;2023-02-02T12:51:51;101047.50;;;13.87;52.15
32638;BME280;19045;52.268;10.506;2023-02-02T12:54:42;101050.91;;;12.62;56.90
32638;BME280;19045;52.268;10.506;2023-02-02T12:57:17;101059.38;;;11.78;59.99
32638;BME280;19045;52.268;10.506;2023-02-02T13:00:02;101059.19;;;12.55;57.21
32638;BME280;19045;52.268;10.506;2023-02-02T13:02:39;101056.88;;;12.15;59.41
32638;BME280;19045;52.268;10.506;2023-02-02T13:05:23;101064.41;;;11.36;60.95
32638;BME280;19045;52.268;10.506;2023-02-02T13:07:57;101057.72;;;10.04;66.30
32638;BME280;19045;52.268;10.506;2023-02-02T13:10:27;101069.81;;;9.09;69.74
32638;BME280;19045;52.268;10.506;2023-02-02T13:12:59;101060.84;;;8.50;72.99